createdAt,value
2022-09-22T00:01:32.426Z,76.98
2022-09-22T00:04:02.709Z,76.80
2022-09-22T00:06:32.146Z,77.06
2022-09-22T00:09:01.579Z,77.21
2022-09-22T00:11:29.946Z,76.97
2022-09-22T00:13:58.346Z,77.21
2022-09-22T00:16:30.528Z,77.16
2022-09-22T00:18:57.668Z,77.28
2022-09-22T00:21:25.582Z,77.42
2022-09-22T00:23:52.520Z,77.67
2022-09-22T00:26:21.969Z,77.60
2022-09-22T00:28:50.194Z,77.38
2022-09-22T00:31:19.277Z,77.50
2022-09-22T00:33:50.984Z,77.80
2022-09-22T00:36:19.898Z,77.39
2022-09-22T00:38:46.528Z,77.45
2022-09-22T00:41:21.040Z,77.39
2022-09-22T00:43:50.060Z,77.39
2022-09-22T00:46:22.592Z,77.58
2022-09-22T00:48:55.648Z,78.06
2022-09-22T00:51:27.330Z,77.71
2022-09-22T00:53:57.539Z,77.66
2022-09-22T00:56:29.380Z,77.53
2022-09-22T00:59:01.304Z,78.16
2022-09-22T01:01:28.047Z,77.85
2022-09-22T01:03:56.589Z,78.01
2022-09-22T01:06:27.474Z,78.30
2022-09-22T01:08:54.945Z,78.11
2022-09-22T01:11:22.744Z,78.02
2022-09-22T01:13:59.458Z,78.39
2022-09-22T01:16:40.512Z,78.24
2022-09-22T01:19:42.875Z,77.98
2022-09-22T01:22:25.091Z,78.00
2022-09-22T01:25:16.141Z,78.08
2022-09-22T01:28:11.133Z,77.84
2022-09-22T01:30:46.518Z,78.02
2022-09-22T01:33:26.447Z,78.02
2022-09-22T01:36:02.925Z,78.13
2022-09-22T01:38:35.851Z,78.18
2022-09-22T01:41:06.190Z,78.17
2022-09-22T01:43:40.489Z,78.30
2022-09-22T01:46:15.500Z,78.04
2022-09-22T01:48:46.163Z,78.37
2022-09-22T01:51:18.317Z,78.11
2022-09-22T01:53:52.336Z,78.25
2022-09-22T01:56:21.723Z,78.57
2022-09-22T01:58:53.529Z,78.47
2022-09-22T02:01:25.929Z,78.16
2022-09-22T02:03:58.310Z,78.21
2022-09-22T02:06:30.873Z,78.44
2022-09-22T02:09:02.463Z,78.59
2022-09-22T02:11:29.091Z,78.57
2022-09-22T02:13:57.293Z,78.24
2022-09-22T02:16:26.068Z,78.80
2022-09-22T02:19:06.035Z,78.37
2022-09-22T02:21:39.755Z,78.10
2022-09-22T02:24:09.190Z,78.73
2022-09-22T02:26:36.689Z,78.41
2022-09-22T02:29:11.251Z,78.28
2022-09-22T02:31:40.331Z,78.42
2022-09-22T02:34:08.033Z,78.67
2022-09-22T02:36:51.901Z,79.22
2022-09-22T02:39:23.346Z,78.68
2022-09-22T02:41:59.556Z,79.86
2022-09-22T02:44:33.939Z,78.75
2022-09-22T02:47:06.154Z,78.88
2022-09-22T02:49:33.502Z,78.54
2022-09-22T02:52:00.261Z,79.19
2022-09-22T02:54:28.212Z,78.93
2022-09-22T02:56:55.128Z,78.98
2022-09-22T02:59:21.716Z,78.73
2022-09-22T03:01:48.405Z,78.92
2022-09-22T03:04:17.086Z,79.02
2022-09-22T03:06:43.798Z,78.78
2022-09-22T03:09:10.482Z,79.44
2022-09-22T03:11:37.220Z,79.21
2022-09-22T03:14:05.454Z,79.17
2022-09-22T03:16:32.140Z,79.27
2022-09-22T03:18:59.180Z,79.34
2022-09-22T03:21:27.292Z,79.64
2022-09-22T03:23:54.172Z,79.57
2022-09-22T03:26:21.758Z,79.44
2022-09-22T03:28:48.431Z,79.64
2022-09-22T03:31:15.460Z,79.30
2022-09-22T03:33:42.465Z,79.77
2022-09-22T03:36:09.114Z,79.18
2022-09-22T03:38:37.238Z,79.06
2022-09-22T03:41:03.957Z,79.38
2022-09-22T03:43:30.618Z,79.31
2022-09-22T03:45:58.333Z,79.41
2022-09-22T03:48:25.514Z,79.39
2022-09-22T03:50:52.442Z,79.30
2022-09-22T03:53:19.553Z,79.70
2022-09-22T03:55:47.604Z,79.71
2022-09-22T03:58:14.316Z,80.05
2022-09-22T04:00:41.004Z,80.12
2022-09-22T04:03:07.667Z,79.41
2022-09-22T04:05:34.431Z,79.59
2022-09-22T04:08:02.555Z,79.38
2022-09-22T04:10:29.198Z,80.25
2022-09-22T04:12:57.199Z,79.68
2022-09-22T04:15:24.129Z,79.44
2022-09-22T04:17:50.787Z,79.94
2022-09-22T04:20:17.498Z,79.80
2022-09-22T04:22:44.123Z,79.53
2022-09-22T04:25:11.021Z,80.24
2022-09-22T04:27:37.966Z,79.68
2022-09-22T04:30:08.377Z,79.92
2022-09-22T04:32:35.349Z,79.94
2022-09-22T04:35:02.226Z,80.18
2022-09-22T04:37:29.145Z,80.24
2022-09-22T04:39:57.953Z,79.80
2022-09-22T04:42:24.694Z,79.68
2022-09-22T04:44:51.349Z,80.26
2022-09-22T04:47:19.348Z,79.90
2022-09-22T04:49:46.230Z,80.47
2022-09-22T04:52:12.935Z,79.89
2022-09-22T04:54:39.544Z,80.16
2022-09-22T04:57:06.235Z,80.00
2022-09-22T04:59:32.948Z,79.75
2022-09-22T05:01:59.577Z,79.96
2022-09-22T05:04:27.836Z,80.40
2022-09-22T05:06:54.634Z,80.05
2022-09-22T05:09:21.519Z,80.01
2022-09-22T05:11:48.168Z,80.36
2022-09-22T05:14:15.106Z,80.38
2022-09-22T05:16:41.775Z,80.29
2022-09-22T05:19:08.444Z,79.89
2022-09-22T05:21:37.220Z,79.86
2022-09-22T05:24:04.342Z,80.20
2022-09-22T05:26:31.106Z,79.99
2022-09-22T05:28:57.777Z,80.21
2022-09-22T05:31:24.449Z,80.57
2022-09-22T05:33:51.118Z,80.06
2022-09-22T05:36:18.038Z,80.70
2022-09-22T05:38:46.347Z,80.22
2022-09-22T05:41:13.002Z,80.46
2022-09-22T05:43:40.224Z,80.28
2022-09-22T05:46:07.274Z,80.19
2022-09-22T05:48:34.057Z,80.29
2022-09-22T05:51:00.782Z,80.45
2022-09-22T05:53:27.580Z,80.69
2022-09-22T05:55:56.136Z,81.06
2022-09-22T05:58:23.799Z,80.31
2022-09-22T06:00:55.904Z,80.79
2022-09-22T06:03:23.283Z,80.45
2022-09-22T06:05:55.102Z,80.73
2022-09-22T06:08:21.980Z,80.64
2022-09-22T06:10:49.239Z,80.67
2022-09-22T06:13:18.862Z,80.48
2022-09-22T06:15:46.425Z,80.54
2022-09-22T06:18:15.260Z,80.76
2022-09-22T06:20:43.088Z,81.14
2022-09-22T06:23:09.895Z,80.75
2022-09-22T06:25:36.600Z,80.75
2022-09-22T06:28:05.856Z,81.35
2022-09-22T06:30:35.980Z,81.06
2022-09-22T06:33:02.832Z,81.63
2022-09-22T06:35:29.717Z,81.16
2022-09-22T06:37:57.047Z,81.42
2022-09-22T06:40:25.944Z,81.69
2022-09-22T06:42:57.131Z,81.66
2022-09-22T06:45:24.007Z,81.65
2022-09-22T06:47:52.144Z,81.71
2022-09-22T06:50:19.001Z,82.17
2022-09-22T06:52:45.650Z,81.78
2022-09-22T06:55:13.659Z,82.30
2022-09-22T06:57:40.563Z,82.00
2022-09-22T07:00:11.235Z,82.45
2022-09-22T07:02:38.147Z,82.39
2022-09-22T07:05:07.049Z,82.42
2022-09-22T07:07:35.661Z,82.37
2022-09-22T07:10:02.591Z,82.67
2022-09-22T07:12:29.476Z,82.33
2022-09-22T07:15:01.422Z,82.45
2022-09-22T07:17:28.253Z,82.54
2022-09-22T07:19:55.066Z,82.73
2022-09-22T07:22:35.809Z,82.54
2022-09-22T07:25:02.753Z,82.68
2022-09-22T07:27:34.256Z,82.72
2022-09-22T07:30:00.740Z,83.23
2022-09-22T07:32:27.609Z,82.85
2022-09-22T07:34:54.586Z,82.98
2022-09-22T07:37:21.392Z,83.18
2022-09-22T07:39:49.768Z,83.24
2022-09-22T07:42:16.733Z,83.79
2022-09-22T07:44:45.436Z,83.21
2022-09-22T07:47:12.231Z,83.20
2022-09-22T07:49:40.349Z,83.14
2022-09-22T07:52:07.019Z,83.16
2022-09-22T07:54:33.935Z,83.00
2022-09-22T07:57:02.361Z,82.78
2022-09-22T07:59:30.177Z,82.66
2022-09-22T08:01:57.247Z,82.72
2022-09-22T08:04:24.361Z,82.18
2022-09-22T08:06:53.262Z,82.08
2022-09-22T08:09:20.444Z,81.97
2022-09-22T08:11:47.223Z,81.90
2022-09-22T08:14:16.799Z,81.72
2022-09-22T08:16:44.547Z,81.64
2022-09-22T08:19:13.040Z,81.48
2022-09-22T08:21:48.440Z,81.08
2022-09-22T08:24:17.142Z,81.12
2022-09-22T08:26:48.039Z,80.91
2022-09-22T08:29:16.410Z,80.24
2022-09-22T08:31:43.206Z,79.96
2022-09-22T08:34:10.049Z,79.27
2022-09-22T08:36:37.544Z,79.40
2022-09-22T08:39:06.588Z,78.69
2022-09-22T08:41:42.295Z,78.41
2022-09-22T08:44:20.073Z,78.28
2022-09-22T08:46:47.601Z,77.78
2022-09-22T08:49:18.451Z,77.03
2022-09-22T08:51:51.856Z,76.96
2022-09-22T08:54:19.434Z,76.68
2022-09-22T08:56:52.548Z,76.32
2022-09-22T08:59:24.026Z,76.15
2022-09-22T09:02:01.357Z,75.19
2022-09-22T09:04:53.595Z,74.89
2022-09-22T09:07:29.006Z,75.35
2022-09-22T09:10:08.269Z,74.15
2022-09-22T09:12:52.433Z,73.81
2022-09-22T09:15:44.174Z,73.54
2022-09-22T09:18:14.365Z,72.54
2022-09-22T09:20:44.932Z,72.86
2022-09-22T09:23:16.564Z,72.08
2022-09-22T09:25:44.197Z,71.50
2022-09-22T09:28:14.155Z,71.30
2022-09-22T09:30:46.132Z,71.32
2022-09-22T09:33:23.524Z,70.84
2022-09-22T09:35:51.757Z,70.73
2022-09-22T09:38:25.940Z,69.94
2022-09-22T09:40:58.599Z,69.86
2022-09-22T09:43:26.991Z,69.63
2022-09-22T09:46:13.002Z,68.84
2022-09-22T09:48:57.887Z,68.42
2022-09-22T09:51:41.228Z,67.98
2022-09-22T09:54:11.897Z,67.66
2022-09-22T09:57:07.786Z,66.97
2022-09-22T09:59:35.876Z,67.00
2022-09-22T10:02:04.553Z,68.71
2022-09-22T10:04:33.944Z,69.26
2022-09-22T10:07:12.097Z,68.42
2022-09-22T10:09:40.812Z,66.57
2022-09-22T10:12:22.026Z,56.28
2022-09-22T10:14:50.806Z,61.62
2022-09-22T10:17:23.203Z,59.02
2022-09-22T10:19:50.289Z,57.53
2022-09-22T10:22:23.870Z,55.50
2022-09-22T10:24:57.848Z,50.68
2022-09-22T10:27:27.435Z,50.94
2022-09-22T10:30:13.128Z,48.16
2022-09-22T10:32:41.805Z,47.88
2022-09-22T10:35:26.774Z,47.11
2022-09-22T10:37:57.332Z,46.05
2022-09-22T10:40:27.001Z,44.46
2022-09-22T10:42:59.847Z,42.84
2022-09-22T10:45:40.612Z,40.58
2022-09-22T10:48:15.088Z,41.21
2022-09-22T10:51:03.041Z,39.50
2022-09-22T10:53:38.711Z,38.54
2022-09-22T10:56:14.520Z,36.89
2022-09-22T10:58:59.198Z,37.24
2022-09-22T11:01:40.928Z,33.97
2022-09-22T11:04:40.379Z,35.90
2022-09-22T11:07:24.920Z,35.74
2022-09-22T11:10:02.839Z,35.37
2022-09-22T11:12:45.129Z,36.38
2022-09-22T11:15:41.403Z,36.25
2022-09-22T11:18:27.913Z,36.52
2022-09-22T11:21:05.101Z,36.26
2022-09-22T11:23:59.765Z,36.81
2022-09-22T11:26:45.899Z,35.06
2022-09-22T11:29:48.090Z,36.14
2022-09-22T11:32:31.080Z,36.78
2022-09-22T11:35:21.001Z,35.38
2022-09-22T11:38:02.489Z,35.99
2022-09-22T11:41:03.484Z,35.13
2022-09-22T11:43:58.554Z,33.66
2022-09-22T11:46:37.800Z,34.50
2022-09-22T11:49:15.544Z,34.29
2022-09-22T11:51:58.253Z,33.56
2022-09-22T11:54:46.844Z,33.92
2022-09-22T11:57:21.424Z,34.58
2022-09-22T11:59:53.502Z,34.37
2022-09-22T12:02:26.087Z,33.66
2022-09-22T12:04:59.247Z,34.74
2022-09-22T12:07:30.090Z,34.47
2022-09-22T12:10:02.811Z,34.39
2022-09-22T12:12:33.325Z,34.58
2022-09-22T12:15:07.563Z,35.21
2022-09-22T12:17:41.046Z,35.06
2022-09-22T12:20:21.543Z,35.60
2022-09-22T12:23:25.385Z,35.64
2022-09-22T12:25:54.449Z,35.38
2022-09-22T12:28:25.682Z,35.71
2022-09-22T12:30:58.987Z,36.28
2022-09-22T12:33:27.042Z,36.69
2022-09-22T12:35:56.804Z,36.08
2022-09-22T12:38:24.650Z,35.71
2022-09-22T12:40:54.422Z,35.42
2022-09-22T12:43:23.671Z,36.35
2022-09-22T12:45:54.130Z,36.43
2022-09-22T12:48:23.725Z,36.22
2022-09-22T12:50:50.869Z,36.50
2022-09-22T12:53:25.851Z,35.70
2022-09-22T12:55:53.640Z,35.88
2022-09-22T12:58:41.691Z,35.84
2022-09-22T13:01:42.271Z,36.39
2022-09-22T13:04:17.588Z,36.30
2022-09-22T13:06:55.453Z,36.52
2022-09-22T13:09:25.062Z,36.73
2022-09-22T13:12:21.336Z,37.00
2022-09-22T13:15:16.250Z,37.21
2022-09-22T13:17:46.375Z,36.47
2022-09-22T13:20:18.605Z,36.44
2022-09-22T13:22:45.600Z,37.20
2022-09-22T13:25:26.994Z,36.38
2022-09-22T13:28:04.035Z,36.66
2022-09-22T13:30:32.390Z,36.67
2022-09-22T13:33:00.839Z,37.19
2022-09-22T13:35:30.596Z,37.15
2022-09-22T13:38:00.463Z,37.25
2022-09-22T13:40:29.223Z,37.33
2022-09-22T13:43:00.150Z,36.80
2022-09-22T13:45:27.047Z,37.63
2022-09-22T13:48:03.643Z,37.10
2022-09-22T13:50:39.991Z,37.00
2022-09-22T13:53:07.365Z,36.77
2022-09-22T13:55:35.992Z,36.37
2022-09-22T13:58:04.139Z,36.26
2022-09-22T14:01:01.417Z,36.17
2022-09-22T14:03:36.582Z,36.22
2022-09-22T14:06:04.444Z,35.73
2022-09-22T14:08:32.812Z,35.42
2022-09-22T14:11:00.778Z,35.79
2022-09-22T14:13:44.856Z,34.57
2022-09-22T14:16:23.406Z,34.78
2022-09-22T14:18:59.622Z,35.25
2022-09-22T14:21:26.461Z,35.21
2022-09-22T14:23:53.229Z,35.00
2022-09-22T14:26:28.439Z,34.58
2022-09-22T14:28:56.540Z,34.57
2022-09-22T14:31:27.716Z,35.26
2022-09-22T14:33:57.028Z,33.78
2022-09-22T14:36:25.573Z,34.17
2022-09-22T14:39:10.334Z,33.91
2022-09-22T14:41:39.500Z,34.14
2022-09-22T14:44:23.520Z,34.41
2022-09-22T14:46:54.716Z,34.55
2022-09-22T14:49:36.770Z,34.53
2022-09-22T14:52:05.734Z,34.92
2022-09-22T14:54:33.871Z,35.27
2022-09-22T14:57:05.547Z,35.03
2022-09-22T14:59:35.921Z,35.47
2022-09-22T15:02:10.747Z,35.14
2022-09-22T15:04:54.336Z,34.04
2022-09-22T15:07:29.278Z,34.19
2022-09-22T15:10:32.003Z,34.74
2022-09-22T15:13:28.638Z,34.58
2022-09-22T15:15:59.166Z,34.75
2022-09-22T15:18:30.948Z,34.76
2022-09-22T15:21:15.256Z,34.00
2022-09-22T15:23:50.371Z,34.95
2022-09-22T15:26:25.243Z,34.45
2022-09-22T15:28:59.513Z,35.35
2022-09-22T15:31:30.410Z,34.96
2022-09-22T15:37:02.770Z,35.23
2022-09-22T15:39:30.609Z,35.46
2022-09-22T15:42:00.833Z,35.49
2022-09-22T15:44:34.011Z,35.65
2022-09-22T15:47:01.062Z,35.99
2022-09-22T15:49:38.353Z,36.29
2022-09-22T15:52:10.215Z,36.60
2022-09-22T15:54:37.062Z,36.58
2022-09-22T15:57:08.543Z,37.17
2022-09-22T15:59:37.019Z,37.12
2022-09-22T16:02:10.732Z,37.57
2022-09-22T16:05:01.498Z,38.13
2022-09-22T16:07:30.012Z,38.66
2022-09-22T16:09:56.765Z,39.36
2022-09-22T16:15:30.470Z,39.41
2022-09-22T16:17:57.154Z,39.59
2022-09-22T16:20:23.949Z,40.48
2022-09-22T16:22:52.374Z,40.58
2022-09-22T16:25:19.416Z,41.07
2022-09-22T16:27:46.134Z,41.60
2022-09-22T16:30:15.295Z,41.92
2022-09-22T16:32:42.050Z,42.45
2022-09-22T16:35:09.643Z,42.68
2022-09-22T16:37:36.375Z,43.21
2022-09-22T16:40:05.918Z,43.49
2022-09-22T16:42:32.622Z,44.01
2022-09-22T16:44:59.853Z,44.29
2022-09-22T16:47:26.667Z,44.58
2022-09-22T16:49:53.331Z,44.97
2022-09-22T16:52:20.018Z,45.35
2022-09-22T16:54:46.820Z,45.71
2022-09-22T16:57:20.298Z,45.87
2022-09-22T16:59:47.036Z,46.33
2022-09-22T17:02:14.364Z,46.40
2022-09-22T17:04:54.275Z,47.30
2022-09-22T17:07:24.420Z,47.84
2022-09-22T17:09:54.233Z,48.42
2022-09-22T17:12:25.738Z,48.41
2022-09-22T17:14:52.345Z,50.83
2022-09-22T17:17:19.117Z,49.05
2022-09-22T17:19:45.758Z,49.42
2022-09-22T17:22:12.549Z,49.62
2022-09-22T17:24:39.389Z,49.97
2022-09-22T17:27:06.230Z,50.49
2022-09-22T17:29:34.896Z,50.93
2022-09-22T17:32:12.191Z,51.22
2022-09-22T17:34:39.475Z,51.95
2022-09-22T17:37:06.356Z,52.16
2022-09-22T17:39:36.261Z,52.44
2022-09-22T17:42:03.289Z,53.20
2022-09-22T17:44:42.155Z,53.40
2022-09-22T17:47:09.034Z,53.68
2022-09-22T17:49:36.361Z,53.78
2022-09-22T17:52:08.154Z,54.01
2022-09-22T17:54:36.971Z,54.27
2022-09-22T17:57:04.931Z,54.59
2022-09-22T17:59:31.723Z,55.12
2022-09-22T18:02:00.352Z,55.50
2022-09-22T18:04:28.257Z,56.10
2022-09-22T18:07:18.039Z,55.84
2022-09-22T18:09:46.570Z,56.44
2022-09-22T18:12:16.571Z,56.79
2022-09-22T18:14:46.041Z,57.59
2022-09-22T18:17:18.341Z,57.62
2022-09-22T18:19:45.929Z,58.23
2022-09-22T18:22:15.241Z,58.56
2022-09-22T18:24:42.175Z,58.99
2022-09-22T18:27:18.358Z,59.43
2022-09-22T18:29:45.320Z,59.43
2022-09-22T18:32:12.767Z,59.80
2022-09-22T18:34:41.030Z,59.98
2022-09-22T18:37:07.732Z,60.12
2022-09-22T18:39:34.739Z,60.30
2022-09-22T18:42:02.056Z,60.20
2022-09-22T18:44:29.303Z,60.55
2022-09-22T18:46:56.419Z,60.72
2022-09-22T18:49:23.205Z,60.64
2022-09-22T18:51:52.974Z,60.86
2022-09-22T18:54:20.837Z,60.84
2022-09-22T18:56:48.915Z,60.71
2022-09-22T18:59:17.881Z,60.97
2022-09-22T19:01:45.220Z,61.25
2022-09-22T19:04:14.324Z,61.41
2022-09-22T19:06:40.992Z,61.64
2022-09-22T19:09:09.235Z,62.03
2022-09-22T19:11:36.076Z,61.96
2022-09-22T19:14:02.675Z,62.15
2022-09-22T19:16:29.662Z,62.44
2022-09-22T19:18:56.242Z,62.45
2022-09-22T19:21:22.858Z,62.64
2022-09-22T19:23:49.768Z,63.06
2022-09-22T19:26:19.332Z,63.05
2022-09-22T19:28:45.931Z,63.26
2022-09-22T19:31:12.903Z,63.15
2022-09-22T19:33:39.663Z,63.37
2022-09-22T19:36:06.823Z,63.72
2022-09-22T19:38:34.835Z,63.46
2022-09-22T19:41:01.546Z,63.83
2022-09-22T19:43:29.715Z,64.12
2022-09-22T19:45:56.984Z,64.11
2022-09-22T19:48:24.377Z,64.39
2022-09-22T19:50:51.210Z,64.37
2022-09-22T19:53:20.563Z,64.74
2022-09-22T19:55:47.241Z,64.67
2022-09-22T19:58:14.020Z,64.87
2022-09-22T20:00:42.151Z,64.77
2022-09-22T20:03:10.354Z,64.63
2022-09-22T20:05:40.005Z,64.60
2022-09-22T20:08:08.971Z,65.11
2022-09-22T20:10:35.758Z,64.79
2022-09-22T20:13:02.462Z,64.96
2022-09-22T20:15:29.263Z,65.46
2022-09-22T20:17:58.209Z,65.42
2022-09-22T20:20:25.750Z,65.19
2022-09-22T20:22:59.802Z,65.72
2022-09-22T20:25:30.316Z,65.74
2022-09-22T20:27:58.900Z,65.58
2022-09-22T20:30:25.513Z,65.79
2022-09-22T20:32:52.814Z,66.04
2022-09-22T20:35:21.021Z,66.31
2022-09-22T20:37:47.683Z,66.35
2022-09-22T20:40:16.538Z,66.00
2022-09-22T20:42:43.619Z,66.23
2022-09-22T20:45:11.215Z,66.76
2022-09-22T20:47:37.975Z,66.63
2022-09-22T20:50:05.932Z,66.59
2022-09-22T20:52:34.476Z,66.69
2022-09-22T20:55:01.220Z,66.71
2022-09-22T20:57:28.483Z,66.29
2022-09-22T20:59:55.148Z,66.77
2022-09-22T21:02:21.873Z,66.96
2022-09-22T21:04:49.074Z,67.23
2022-09-22T21:07:16.103Z,67.21
2022-09-22T21:09:44.884Z,67.13
2022-09-22T21:12:14.101Z,67.48
2022-09-22T21:14:40.953Z,67.14
2022-09-22T21:17:09.095Z,67.44
2022-09-22T21:19:36.079Z,67.33
2022-09-22T21:22:03.159Z,67.42
2022-09-22T21:24:33.354Z,67.43
2022-09-22T21:27:02.815Z,67.73
2022-09-22T21:29:31.541Z,67.93
2022-09-22T21:31:59.661Z,67.52
2022-09-22T21:34:26.489Z,67.47
2022-09-22T21:36:53.174Z,67.73
2022-09-22T21:39:19.853Z,67.43
2022-09-22T21:41:46.618Z,67.48
2022-09-22T21:44:14.814Z,67.64
2022-09-22T21:46:41.682Z,67.81
2022-09-22T21:49:09.258Z,67.50
2022-09-22T21:51:37.247Z,67.81
2022-09-22T21:54:05.405Z,67.82
2022-09-22T21:56:33.806Z,67.52
2022-09-22T21:59:00.856Z,67.86
2022-09-22T22:01:30.678Z,67.41
2022-09-22T22:03:59.074Z,67.88
2022-09-22T22:06:27.473Z,67.60
2022-09-22T22:08:56.366Z,67.95
2022-09-22T22:11:24.990Z,68.22
2022-09-22T22:13:54.549Z,68.12
2022-09-22T22:16:23.299Z,68.05
2022-09-22T22:18:52.036Z,67.88
2022-09-22T22:21:21.480Z,68.29
2022-09-22T22:23:50.178Z,68.33
2022-09-22T22:26:19.420Z,68.35
2022-09-22T22:28:48.329Z,68.36
2022-09-22T22:31:17.307Z,68.51
2022-09-22T22:33:45.360Z,68.68
2022-09-22T22:36:15.930Z,68.77
2022-09-22T22:38:44.124Z,68.69
2022-09-22T22:41:17.274Z,68.64
2022-09-22T22:43:44.760Z,68.32
2022-09-22T22:46:12.429Z,68.80
2022-09-22T22:48:39.301Z,69.16
2022-09-22T22:51:07.966Z,69.02
2022-09-22T22:53:35.988Z,68.91
2022-09-22T22:56:05.117Z,68.91
2022-09-22T22:58:35.348Z,69.18
2022-09-22T23:01:03.653Z,69.08
2022-09-22T23:03:30.561Z,69.26
2022-09-22T23:05:58.189Z,69.15
2022-09-22T23:08:25.962Z,69.09
2022-09-22T23:11:00.993Z,69.08
2022-09-22T23:13:28.105Z,68.81
2022-09-22T23:16:02.912Z,68.86
2022-09-22T23:18:30.871Z,68.97
2022-09-22T23:20:57.751Z,69.11
2022-09-22T23:23:24.677Z,69.30
2022-09-22T23:25:51.825Z,68.99
2022-09-22T23:28:20.425Z,69.12
2022-09-22T23:30:47.489Z,69.09
2022-09-22T23:33:14.353Z,69.05
2022-09-22T23:35:41.223Z,69.01
2022-09-22T23:38:09.173Z,69.33
2022-09-22T23:40:36.039Z,69.16
2022-09-22T23:43:03.495Z,69.25
2022-09-22T23:45:31.830Z,69.27
2022-09-22T23:47:59.782Z,69.38
2022-09-22T23:50:26.395Z,68.88
2022-09-22T23:52:53.099Z,69.12
2022-09-22T23:55:20.057Z,69.13
2022-09-22T23:57:47.404Z,69.33
